Time;durP1;ratioP1;P1;durP2;ratioP2;P2;SDS_P1;SDS_P2;PMS_P1;PMS_P2;Temp;Humidity;BMP_temperature;BMP_pressure;BME280_temperature;BME280_humidity;BME280_pressure;Samples;Min_cycle;Max_cycle;Signal;HPM_P1;HPM_P2
2022/03/23 00:02:26;;;;;;;33.97;18.42;;;;;;;;;;5013409;28;20017;-87
2022/03/23 00:04:51;;;;;;;32.47;18.17;;;;;;;;;;5028669;28;20022;-86
2022/03/23 00:07:16;;;;;;;33.13;18.70;;;;;;;;;;5013549;28;20026;-88
2022/03/23 00:09:42;;;;;;;30.48;17.83;;;;;;;;;;5028612;28;20056;-87
2022/03/23 00:12:07;;;;;;;31.02;18.23;;;;;;;;;;5012325;28;20481;-89
2022/03/23 00:14:32;;;;;;;31.35;17.65;;;;;;;;;;5012387;28;20032;-88
2022/03/23 00:16:58;;;;;;;32.35;17.48;;;;;;;;;;5013244;28;20544;-89
2022/03/23 00:19:23;;;;;;;28.90;17.50;;;;;;;;;;5013339;28;20017;-88
2022/03/23 00:21:48;;;;;;;30.73;17.15;;;;;;;;;;5011849;28;20029;-89
2022/03/23 00:24:13;;;;;;;36.28;16.42;;;;;;;;;;5011933;28;20033;-88
2022/03/23 00:26:39;;;;;;;32.28;16.85;;;;;;;;;;5013501;28;20386;-86
2022/03/23 00:29:04;;;;;;;35.35;17.85;;;;;;;;;;5011124;28;20104;-88
2022/03/23 00:31:30;;;;;;;33.05;17.98;;;;;;;;;;5011595;28;20104;-88
2022/03/23 00:33:56;;;;;;;28.08;15.88;;;;;;;;;;5013083;28;20030;-89
2022/03/23 00:36:21;;;;;;;31.42;17.30;;;;;;;;;;5013228;28;20037;-88
2022/03/23 00:38:46;;;;;;;32.35;16.75;;;;;;;;;;5012017;28;20030;-86
2022/03/23 00:41:12;;;;;;;27.67;16.70;;;;;;;;;;5011758;28;20033;-88
2022/03/23 00:43:37;;;;;;;32.25;17.23;;;;;;;;;;5011472;28;20026;-89
2022/03/23 00:46:02;;;;;;;38.45;18.92;;;;;;;;;;5013188;28;20018;-89
2022/03/23 00:48:28;;;;;;;28.00;16.60;;;;;;;;;;5009044;28;20025;-88
2022/03/23 00:50:53;;;;;;;36.78;17.25;;;;;;;;;;4994386;28;20064;-90
2022/03/23 00:53:18;;;;;;;29.88;16.92;;;;;;;;;;4993173;28;20030;-90
2022/03/23 00:55:44;;;;;;;29.40;16.50;;;;;;;;;;4992044;28;20018;-89
2022/03/23 00:58:09;;;;;;;29.30;16.50;;;;;;;;;;4993244;28;20022;-90
2022/03/23 01:00:34;;;;;;;34.50;18.10;;;;;;;;;;4993626;28;20022;-89
2022/03/23 01:03:00;;;;;;;33.65;17.75;;;;;;;;;;5008377;28;20022;-89
2022/03/23 01:05:26;;;;;;;34.67;16.52;;;;;;;;;;5006656;28;20021;-89
2022/03/23 01:07:51;;;;;;;30.83;16.50;;;;;;;;;;5013692;28;20022;-89
2022/03/23 01:10:17;;;;;;;26.58;15.63;;;;;;;;;;5012800;28;20028;-87
2022/03/23 01:12:44;;;;;;;30.50;16.23;;;;;;;;;;5011889;28;20029;-89
2022/03/23 01:15:11;;;;;;;32.30;17.25;;;;;;;;;;5011729;28;20036;-87
2022/03/23 01:17:36;;;;;;;32.75;17.00;;;;;;;;;;5012797;28;20018;-89
2022/03/23 01:20:03;;;;;;;28.63;16.17;;;;;;;;;;5012407;28;20025;-89
2022/03/23 01:22:31;;;;;;;32.78;16.55;;;;;;;;;;5007694;28;20030;-89
2022/03/23 01:24:56;;;;;;;34.72;15.90;;;;;;;;;;5011081;28;20108;-88
2022/03/23 01:27:21;;;;;;;29.90;16.55;;;;;;;;;;5012670;28;20495;-90
2022/03/23 01:29:46;;;;;;;30.52;15.95;;;;;;;;;;5012519;28;20026;-90
2022/03/23 01:32:12;;;;;;;32.22;17.00;;;;;;;;;;5011110;28;20026;-89
2022/03/23 01:34:37;;;;;;;28.10;16.08;;;;;;;;;;5011426;28;20032;-88
2022/03/23 01:37:02;;;;;;;30.20;15.73;;;;;;;;;;5011888;28;20022;-90
2022/03/23 01:39:28;;;;;;;29.02;15.38;;;;;;;;;;5006913;28;20022;-89
2022/03/23 01:41:53;;;;;;;30.45;16.17;;;;;;;;;;5010781;28;20388;-90
2022/03/23 01:44:20;;;;;;;35.20;16.35;;;;;;;;;;5014478;28;20101;-92
2022/03/23 01:47:02;;;;;;;30.33;16.17;;;;;;;;;;5015369;28;20029;-89
2022/03/23 01:49:27;;;;;;;30.77;15.43;;;;;;;;;;5022181;28;20498;-89
2022/03/23 01:51:53;;;;;;;35.15;16.35;;;;;;;;;;5016463;28;20108;-89
2022/03/23 01:54:18;;;;;;;24.75;13.93;;;;;;;;;;5010758;28;20028;-89
2022/03/23 01:56:43;;;;;;;27.75;15.63;;;;;;;;;;5006747;28;20017;-90
2022/03/23 01:59:09;;;;;;;32.42;15.40;;;;;;;;;;5016121;28;20044;-89
2022/03/23 02:01:35;;;;;;;31.38;15.80;;;;;;;;;;5015990;28;20026;-90
2022/03/23 02:04:00;;;;;;;25.83;15.75;;;;;;;;;;5016491;28;20026;-89
2022/03/23 02:06:26;;;;;;;27.85;16.35;;;;;;;;;;5015972;28;20018;-89
2022/03/23 02:08:51;;;;;;;27.98;14.35;;;;;;;;;;5014787;28;20021;-90
2022/03/23 02:11:16;;;;;;;29.65;16.48;;;;;;;;;;5025800;28;20551;-89
2022/03/23 02:13:42;;;;;;;29.92;15.77;;;;;;;;;;5015584;28;20478;-89
2022/03/23 02:16:08;;;;;;;28.38;15.48;;;;;;;;;;5016322;28;20018;-89
2022/03/23 02:18:33;;;;;;;29.35;15.07;;;;;;;;;;5016944;28;20025;-90
2022/03/23 02:20:58;;;;;;;23.98;14.38;;;;;;;;;;5017182;28;20026;-90
2022/03/23 02:23:23;;;;;;;28.25;16.67;;;;;;;;;;5015210;28;20164;-89
2022/03/23 02:25:52;;;;;;;31.58;16.70;;;;;;;;;;5016253;28;20014;-88
2022/03/23 02:28:17;;;;;;;27.95;13.95;;;;;;;;;;5014109;28;20108;-90
2022/03/23 02:30:42;;;;;;;29.33;14.85;;;;;;;;;;5016439;28;20103;-90
2022/03/23 02:33:09;;;;;;;30.08;14.98;;;;;;;;;;5016497;28;20022;-92
2022/03/23 02:35:34;;;;;;;27.48;15.57;;;;;;;;;;5019068;28;20135;-90
2022/03/23 02:38:00;;;;;;;26.25;14.98;;;;;;;;;;5020250;28;20109;-90
2022/03/23 02:40:25;;;;;;;23.98;13.82;;;;;;;;;;5021528;28;20033;-90
2022/03/23 02:42:50;;;;;;;32.65;15.18;;;;;;;;;;5019111;28;20097;-89
2022/03/23 02:45:18;;;;;;;29.13;14.45;;;;;;;;;;5019366;28;20018;-89
2022/03/23 02:47:43;;;;;;;30.67;14.18;;;;;;;;;;5021438;28;20508;-89
2022/03/23 02:50:09;;;;;;;34.00;15.20;;;;;;;;;;5002117;28;20018;-89
2022/03/23 02:52:34;;;;;;;32.30;14.73;;;;;;;;;;4999174;28;20113;-90
2022/03/23 03:03:19;;;;;;;30.38;14.27;;;;;;;;;;5009376;28;20455;-89
2022/03/23 03:05:44;;;;;;;24.70;13.80;;;;;;;;;;5023342;28;20014;-90
2022/03/23 03:10:56;;;;;;;26.13;13.55;;;;;;;;;;5017319;28;20543;-91
2022/03/23 03:13:21;;;;;;;24.20;13.80;;;;;;;;;;5015858;28;20030;-92
2022/03/23 03:15:46;;;;;;;30.10;15.32;;;;;;;;;;5032416;28;20487;-92
2022/03/23 03:18:12;;;;;;;36.55;14.63;;;;;;;;;;5014543;28;20118;-90
2022/03/23 03:20:37;;;;;;;26.63;15.35;;;;;;;;;;5014002;28;20108;-91
2022/03/23 03:23:03;;;;;;;26.40;14.50;;;;;;;;;;5030451;28;20044;-91
2022/03/23 03:25:28;;;;;;;24.20;13.65;;;;;;;;;;5014494;28;20018;-89
2022/03/23 03:27:53;;;;;;;31.38;15.32;;;;;;;;;;5014699;28;20014;-90
2022/03/23 03:30:19;;;;;;;27.70;14.75;;;;;;;;;;5013427;28;20022;-88
2022/03/23 03:32:48;;;;;;;27.65;13.63;;;;;;;;;;5014908;28;20025;-87
2022/03/23 03:35:13;;;;;;;29.67;15.15;;;;;;;;;;5014206;28;20022;-89
2022/03/23 03:37:39;;;;;;;31.95;15.75;;;;;;;;;;5010873;28;20018;-91
2022/03/23 03:40:05;;;;;;;27.45;14.68;;;;;;;;;;5025349;28;20021;-88
2022/03/23 03:42:30;;;;;;;33.40;15.82;;;;;;;;;;5015278;28;20542;-89
2022/03/23 03:44:57;;;;;;;29.85;15.23;;;;;;;;;;5030312;28;20523;-87
2022/03/23 03:47:23;;;;;;;29.00;14.50;;;;;;;;;;5031228;28;20117;-87
2022/03/23 03:49:48;;;;;;;32.60;15.82;;;;;;;;;;5041468;28;20007;-86
2022/03/23 03:52:13;;;;;;;33.55;15.00;;;;;;;;;;5136855;22;20037;-88
2022/03/23 04:02:24;;;;;;;29.23;15.23;;;;;;;;;;5849899;23;20552;-85
2022/03/23 04:04:53;;;;;;;32.17;15.18;;;;;;;;;;5039089;28;20022;-85
2022/03/23 04:07:18;;;;;;;29.10;15.20;;;;;;;;;;5337348;23;20084;-88
2022/03/23 04:09:43;;;;;;;29.55;15.43;;;;;;;;;;5038584;28;20006;-84
2022/03/23 04:12:09;;;;;;;39.25;18.95;;;;;;;;;;5038135;28;20026;-86
2022/03/23 04:14:34;;;;;;;34.67;16.40;;;;;;;;;;5039474;28;20028;-85
2022/03/23 04:19:34;;;;;;;31.73;14.88;;;;;;;;;;5284321;23;20073;-87
2022/03/23 04:21:59;;;;;;;28.88;14.43;;;;;;;;;;5037737;28;20089;-86
2022/03/23 04:24:24;;;;;;;34.72;16.23;;;;;;;;;;5037408;28;20056;-81
2022/03/23 04:26:50;;;;;;;32.75;17.10;;;;;;;;;;5039139;28;20026;-84
2022/03/23 04:29:15;;;;;;;35.40;17.10;;;;;;;;;;5035058;28;20042;-88
2022/03/23 04:31:40;;;;;;;31.27;16.92;;;;;;;;;;5038694;28;20041;-86
2022/03/23 04:34:06;;;;;;;33.88;15.48;;;;;;;;;;5031854;28;20025;-86
2022/03/23 04:36:31;;;;;;;31.42;14.95;;;;;;;;;;5027443;28;20064;-85
2022/03/23 04:38:56;;;;;;;29.77;15.35;;;;;;;;;;5027576;28;20025;-84
2022/03/23 04:41:22;;;;;;;31.63;16.20;;;;;;;;;;5024834;28;20420;-86
2022/03/23 04:43:50;;;;;;;32.28;16.40;;;;;;;;;;5026455;28;20022;-85
2022/03/23 05:01:45;;;;;;;31.10;15.00;;;;;;;;;;6118499;23;20341;-82
2022/03/23 05:04:11;;;;;;;33.35;14.85;;;;;;;;;;5037202;28;20053;-83
2022/03/23 05:06:36;;;;;;;30.17;16.42;;;;;;;;;;5038276;28;20013;-83
2022/03/23 05:09:01;;;;;;;32.00;15.73;;;;;;;;;;5038535;28;20060;-82
2022/03/23 05:11:27;;;;;;;33.00;15.82;;;;;;;;;;5039370;28;20033;-83
2022/03/23 05:16:30;;;;;;;30.70;15.63;;;;;;;;;;5828318;23;20262;-83
2022/03/23 05:34:26;;;;;;;31.58;15.63;;;;;;;;;;5697627;23;20037;-85
2022/03/23 05:57:37;;;;;;;32.60;16.35;;;;;;;;;;5904810;23;20023;-85
2022/03/23 06:00:05;;;;;;;29.90;14.13;;;;;;;;;;5807598;23;20034;-84
2022/03/23 06:02:30;;;;;;;33.85;14.93;;;;;;;;;;5605251;22;20037;-86
2022/03/23 06:15:16;;;;;;;34.60;14.20;;;;;;;;;;5855638;23;20057;-84
2022/03/23 06:20:16;;;;;;;31.90;13.80;;;;;;;;;;5728399;23;20114;-84
2022/03/23 06:22:44;;;;;;;30.52;15.30;;;;;;;;;;5051187;28;20021;-85
2022/03/23 06:25:10;;;;;;;30.83;14.68;;;;;;;;;;5051912;28;20060;-83
2022/03/23 06:27:35;;;;;;;32.92;14.43;;;;;;;;;;5037731;28;20021;-80
2022/03/23 06:30:01;;;;;;;29.52;14.38;;;;;;;;;;5021088;28;20017;-81
2022/03/23 06:32:26;;;;;;;34.40;14.73;;;;;;;;;;5023224;28;20028;-81
2022/03/23 06:34:52;;;;;;;27.50;13.55;;;;;;;;;;5027445;28;20022;-81
2022/03/23 06:37:17;;;;;;;29.02;14.50;;;;;;;;;;5028679;28;20040;-82
2022/03/23 06:39:42;;;;;;;30.67;14.85;;;;;;;;;;5027995;28;20026;-81
2022/03/23 06:42:08;;;;;;;32.15;15.10;;;;;;;;;;5030352;28;20018;-82
2022/03/23 06:44:33;;;;;;;25.60;13.55;;;;;;;;;;5040156;28;20022;-82
2022/03/23 06:46:58;;;;;;;32.15;14.60;;;;;;;;;;5028925;28;20029;-82
2022/03/23 06:49:24;;;;;;;26.80;14.77;;;;;;;;;;5026036;28;20010;-82
2022/03/23 06:51:49;;;;;;;28.52;14.07;;;;;;;;;;5027170;28;20018;-81
2022/03/23 06:54:14;;;;;;;27.33;14.85;;;;;;;;;;5023961;28;20026;-81
2022/03/23 06:56:39;;;;;;;31.10;13.93;;;;;;;;;;5037044;28;20041;-80
2022/03/23 06:59:05;;;;;;;37.15;13.82;;;;;;;;;;5037940;28;20022;-81
2022/03/23 07:01:30;;;;;;;33.13;14.55;;;;;;;;;;5047318;28;20029;-80
2022/03/23 07:06:31;;;;;;;27.15;14.10;;;;;;;;;;6057069;23;21039;-82
2022/03/23 07:11:41;;;;;;;33.00;14.75;;;;;;;;;;5026268;28;20044;-81
2022/03/23 07:14:06;;;;;;;27.92;14.98;;;;;;;;;;5017952;28;20010;-80
2022/03/23 07:16:31;;;;;;;37.20;14.77;;;;;;;;;;5010142;28;20019;-81
2022/03/23 07:18:56;;;;;;;27.42;14.18;;;;;;;;;;5014466;28;20053;-80
2022/03/23 07:21:22;;;;;;;25.50;13.88;;;;;;;;;;4999493;28;20102;-81
2022/03/23 07:23:53;;;;;;;30.30;15.02;;;;;;;;;;5006474;28;20026;-83
2022/03/23 07:26:21;;;;;;;32.30;15.30;;;;;;;;;;5016990;28;19995;-83
2022/03/23 07:28:47;;;;;;;31.48;14.95;;;;;;;;;;5015134;28;20059;-82
2022/03/23 07:31:15;;;;;;;31.05;14.30;;;;;;;;;;5015641;28;20018;-82
2022/03/23 07:33:40;;;;;;;25.00;13.30;;;;;;;;;;5015768;28;20091;-82
2022/03/23 07:36:07;;;;;;;27.00;13.95;;;;;;;;;;5003193;28;20031;-83
2022/03/23 07:38:33;;;;;;;28.17;13.63;;;;;;;;;;5008976;28;20057;-82
2022/03/23 07:40:58;;;;;;;31.45;15.55;;;;;;;;;;5009513;28;20019;-82
2022/03/23 07:43:23;;;;;;;25.30;13.45;;;;;;;;;;5011470;28;20026;-82
2022/03/23 07:45:49;;;;;;;30.25;13.88;;;;;;;;;;5009160;28;20022;-82
2022/03/23 07:48:16;;;;;;;25.45;13.70;;;;;;;;;;5008855;28;20022;-81
2022/03/23 07:50:41;;;;;;;26.65;13.82;;;;;;;;;;5006975;28;20022;-82
2022/03/23 07:53:06;;;;;;;31.67;14.93;;;;;;;;;;5008350;28;20061;-81
2022/03/23 07:55:31;;;;;;;25.75;13.40;;;;;;;;;;5007825;28;20023;-81
2022/03/23 07:58:00;;;;;;;29.63;14.20;;;;;;;;;;5010064;28;20006;-82
2022/03/23 08:00:26;;;;;;;30.38;14.23;;;;;;;;;;5079949;23;20053;-81
2022/03/23 08:02:51;;;;;;;25.33;13.75;;;;;;;;;;5003575;28;20026;-81
2022/03/23 08:05:17;;;;;;;29.40;15.38;;;;;;;;;;5020442;28;20019;-81
2022/03/23 08:07:42;;;;;;;28.73;14.20;;;;;;;;;;5019233;28;20533;-80
2022/03/23 08:10:07;;;;;;;28.30;14.65;;;;;;;;;;5003478;28;20022;-81
2022/03/23 08:12:36;;;;;;;31.60;14.57;;;;;;;;;;5010637;28;20014;-81
2022/03/23 08:15:01;;;;;;;30.40;14.90;;;;;;;;;;5010717;28;20038;-81
2022/03/23 08:17:27;;;;;;;31.70;14.30;;;;;;;;;;5025858;28;20474;-81
2022/03/23 08:22:36;;;;;;;28.13;13.63;;;;;;;;;;5009640;28;20111;-81
2022/03/23 08:25:01;;;;;;;29.60;15.23;;;;;;;;;;5010081;28;20027;-82
2022/03/23 08:27:27;;;;;;;27.67;14.20;;;;;;;;;;5006905;28;20011;-81
2022/03/23 08:29:52;;;;;;;31.15;15.55;;;;;;;;;;5009544;28;20014;-81
2022/03/23 08:32:26;;;;;;;29.00;15.40;;;;;;;;;;5026904;28;20046;-81
2022/03/23 08:34:51;;;;;;;29.80;14.80;;;;;;;;;;5008792;28;20026;-81
2022/03/23 08:37:17;;;;;;;31.23;16.92;;;;;;;;;;5008206;28;20085;-82
2022/03/23 08:39:42;;;;;;;31.73;15.93;;;;;;;;;;5021718;28;20125;-82
2022/03/23 08:42:07;;;;;;;33.50;15.98;;;;;;;;;;5006669;28;20060;-81
2022/03/23 08:44:33;;;;;;;25.70;15.00;;;;;;;;;;5022930;28;20018;-81
2022/03/23 08:46:58;;;;;;;28.88;15.65;;;;;;;;;;5009770;28;20010;-82
2022/03/23 08:49:23;;;;;;;33.25;16.33;;;;;;;;;;5010263;28;20010;-81
2022/03/23 08:51:49;;;;;;;29.75;16.85;;;;;;;;;;5009436;28;20018;-81
2022/03/23 08:54:15;;;;;;;30.80;16.38;;;;;;;;;;5008574;28;20086;-81
2022/03/23 08:56:41;;;;;;;33.85;16.52;;;;;;;;;;5006531;28;20046;-81
2022/03/23 08:59:06;;;;;;;28.38;16.38;;;;;;;;;;5008774;28;20026;-80
2022/03/23 09:01:31;;;;;;;31.08;17.02;;;;;;;;;;5004809;28;20018;-82
2022/03/23 09:04:01;;;;;;;29.73;16.00;;;;;;;;;;5008435;28;20030;-82
2022/03/23 09:06:26;;;;;;;27.17;16.48;;;;;;;;;;5021221;28;20046;-82
2022/03/23 09:08:51;;;;;;;29.83;16.60;;;;;;;;;;4994987;28;20027;-82
2022/03/23 09:11:16;;;;;;;28.42;15.82;;;;;;;;;;5005817;28;20014;-82
2022/03/23 09:13:44;;;;;;;32.75;16.27;;;;;;;;;;4979878;28;20613;-80
2022/03/23 09:16:09;;;;;;;29.65;16.25;;;;;;;;;;4978568;28;20018;-80
2022/03/23 09:18:34;;;;;;;31.63;15.95;;;;;;;;;;4979187;28;20499;-79
2022/03/23 09:21:00;;;;;;;38.90;16.88;;;;;;;;;;4979635;28;20019;-81
2022/03/23 09:23:25;;;;;;;37.15;16.08;;;;;;;;;;4979418;28;20431;-80
2022/03/23 09:25:52;;;;;;;27.83;16.23;;;;;;;;;;4983357;28;20471;-82
2022/03/23 09:28:18;;;;;;;30.13;16.63;;;;;;;;;;5000779;28;20014;-81
2022/03/23 09:30:43;;;;;;;32.08;16.88;;;;;;;;;;5012615;28;20024;-82
2022/03/23 09:33:11;;;;;;;34.05;16.25;;;;;;;;;;5015357;28;20048;-84
2022/03/23 09:35:37;;;;;;;30.57;17.47;;;;;;;;;;5007862;28;20046;-82
2022/03/23 09:38:04;;;;;;;30.77;15.93;;;;;;;;;;5001783;28;20263;-81
2022/03/23 09:40:31;;;;;;;29.63;16.38;;;;;;;;;;5001099;28;20018;-82
2022/03/23 09:43:04;;;;;;;27.05;15.52;;;;;;;;;;5011863;28;20023;-82
2022/03/23 09:47:59;;;;;;;30.13;16.88;;;;;;;;;;5010679;28;20082;-83
2022/03/23 09:50:33;;;;;;;32.47;18.38;;;;;;;;;;5016161;28;20010;-82
2022/03/23 09:53:07;;;;;;;28.70;16.60;;;;;;;;;;5016935;28;19998;-82
2022/03/23 09:55:33;;;;;;;25.80;15.02;;;;;;;;;;5033356;28;20046;-82
2022/03/23 09:58:00;;;;;;;30.50;15.63;;;;;;;;;;5016922;28;20031;-84
2022/03/23 10:00:29;;;;;;;26.77;16.58;;;;;;;;;;5010107;28;20018;-87
2022/03/23 10:02:54;;;;;;;;;;;;;;;;;;5000026;28;20019;-88
2022/03/23 10:05:39;;;;;;;28.58;14.90;;;;;;;;;;4996441;28;19906;-89
2022/03/23 10:08:19;;;;;;;30.65;15.40;;;;;;;;;;4995989;28;20394;-89
2022/03/23 10:10:54;;;;;;;29.02;16.00;;;;;;;;;;4997080;28;20052;-87
2022/03/23 10:13:38;;;;;;;28.02;15.90;;;;;;;;;;4992733;28;20023;-88
2022/03/23 10:16:22;;;;;;;30.30;16.92;;;;;;;;;;4988310;28;20463;-85
2022/03/23 10:18:51;;;;;;;27.58;15.30;;;;;;;;;;4994743;28;20054;-88
2022/03/23 10:21:18;;;;;;;27.20;16.58;;;;;;;;;;4998182;28;20019;-88
2022/03/23 10:24:02;;;;;;;32.20;16.10;;;;;;;;;;5011029;28;20030;-89
2022/03/23 10:26:28;;;;;;;26.02;15.82;;;;;;;;;;4994906;28;20026;-89
2022/03/23 10:28:53;;;;;;;25.05;16.50;;;;;;;;;;4995937;28;20026;-89
2022/03/23 10:31:21;;;;;;;35.55;17.08;;;;;;;;;;4995675;28;20394;-89
2022/03/23 10:34:07;;;;;;;28.05;15.98;;;;;;;;;;4990842;28;20094;-89
2022/03/23 10:36:33;;;;;;;26.35;16.02;;;;;;;;;;4996252;28;20022;-88
2022/03/23 10:38:59;;;;;;;26.45;15.38;;;;;;;;;;4995965;28;20018;-89
2022/03/23 10:41:25;;;;;;;27.50;16.08;;;;;;;;;;4996512;28;20018;-88
2022/03/23 10:43:50;;;;;;;28.15;15.68;;;;;;;;;;4995421;28;20069;-89
2022/03/23 10:46:17;;;;;;;23.73;14.98;;;;;;;;;;4995532;28;20468;-90
2022/03/23 10:48:58;;;;;;;27.20;16.38;;;;;;;;;;4994214;28;20087;-88
2022/03/23 10:51:28;;;;;;;23.92;15.23;;;;;;;;;;4995097;28;20077;-89
2022/03/23 10:53:54;;;;;;;24.58;14.90;;;;;;;;;;5009840;28;20050;-88
2022/03/23 10:56:36;;;;;;;26.80;15.00;;;;;;;;;;4995122;28;20098;-85
2022/03/23 10:59:17;;;;;;;24.35;15.02;;;;;;;;;;4981212;28;20018;-85
2022/03/23 11:01:58;;;;;;;24.38;14.13;;;;;;;;;;4979132;28;20014;-85
2022/03/23 11:04:29;;;;;;;26.58;15.82;;;;;;;;;;4994132;28;20402;-85
2022/03/23 11:06:55;;;;;;;26.42;16.45;;;;;;;;;;4989998;28;20568;-83
2022/03/23 11:18:08;;;;;;;28.60;15.88;;;;;;;;;;4980953;28;20033;-80
2022/03/23 11:20:34;;;;;;;;;;;;;;;;;;5009795;28;20113;-82
2022/03/23 11:23:15;;;;;;;29.38;15.85;;;;;;;;;;4992511;28;19934;-81
2022/03/23 11:25:40;;;;;;;31.60;16.08;;;;;;;;;;4978003;28;20482;-81
2022/03/23 11:28:05;;;;;;;24.33;16.50;;;;;;;;;;4994069;28;20022;-80
2022/03/23 11:30:31;;;;;;;24.08;16.27;;;;;;;;;;4992069;28;20478;-80
2022/03/23 11:32:56;;;;;;;22.52;16.42;;;;;;;;;;4983898;28;20015;-79
2022/03/23 11:35:22;;;;;;;25.02;16.15;;;;;;;;;;4991970;28;20085;-80
2022/03/23 11:37:48;;;;;;;25.45;16.15;;;;;;;;;;4994187;28;20129;-80
2022/03/23 11:40:13;;;;;;;23.17;15.95;;;;;;;;;;4993968;28;20493;-80
2022/03/23 11:42:38;;;;;;;23.58;16.38;;;;;;;;;;4993736;28;20058;-81
2022/03/23 11:45:04;;;;;;;27.97;17.67;;;;;;;;;;4993604;28;20026;-81
2022/03/23 11:47:39;;;;;;;26.60;18.33;;;;;;;;;;4990402;28;20271;-79
2022/03/23 11:50:25;;;;;;;27.23;18.05;;;;;;;;;;4993272;28;20489;-80
2022/03/23 11:52:54;;;;;;;21.77;15.23;;;;;;;;;;4992074;28;20034;-80
2022/03/23 11:55:37;;;;;;;30.80;17.90;;;;;;;;;;4993880;28;20490;-79
2022/03/23 11:58:04;;;;;;;27.05;17.98;;;;;;;;;;4992424;28;20050;-79
2022/03/23 12:00:36;;;;;;;26.23;18.63;;;;;;;;;;4994487;28;20058;-80
2022/03/23 12:03:01;;;;;;;28.27;17.98;;;;;;;;;;4993854;28;20014;-81
2022/03/23 12:05:31;;;;;;;27.95;16.33;;;;;;;;;;4993311;28;20018;-80
2022/03/23 12:07:56;;;;;;;22.23;15.00;;;;;;;;;;5006723;28;20026;-79
2022/03/23 12:10:22;;;;;;;22.77;16.00;;;;;;;;;;4997205;28;20080;-79
2022/03/23 12:12:48;;;;;;;25.88;17.58;;;;;;;;;;5011591;28;20018;-79
2022/03/23 12:15:22;;;;;;;21.90;16.58;;;;;;;;;;4993522;28;20109;-79
2022/03/23 12:17:54;;;;;;;28.52;17.73;;;;;;;;;;4993432;28;20217;-79
2022/03/23 12:20:26;;;;;;;21.77;16.52;;;;;;;;;;4994085;28;20037;-80
2022/03/23 12:23:10;;;;;;;23.08;17.08;;;;;;;;;;5010323;28;20371;-80
2022/03/23 12:25:52;;;;;;;27.00;17.05;;;;;;;;;;4991674;28;20023;-80
2022/03/23 12:28:36;;;;;;;24.98;18.25;;;;;;;;;;4991329;28;20022;-78
2022/03/23 12:31:05;;;;;;;22.13;17.05;;;;;;;;;;4990747;28;20022;-79
2022/03/23 12:33:30;;;;;;;;;;;;;;;;;;5005817;28;20014;-80
2022/03/23 12:36:02;;;;;;;22.30;17.27;;;;;;;;;;4991209;28;19916;-78
2022/03/23 12:38:29;;;;;;;22.92;17.02;;;;;;;;;;4992746;28;20101;-79
2022/03/23 12:41:12;;;;;;;28.25;18.35;;;;;;;;;;4992563;28;20081;-79
2022/03/23 12:43:40;;;;;;;26.35;19.10;;;;;;;;;;4992982;28;20105;-79
2022/03/23 12:46:17;;;;;;;33.97;20.85;;;;;;;;;;4991883;28;20069;-79
2022/03/23 13:00:09;;;;;;;25.55;19.83;;;;;;;;;;4992508;28;20070;-79
2022/03/23 13:02:34;;;;;;;28.45;19.33;;;;;;;;;;4992157;28;20126;-80
2022/03/23 13:05:04;;;;;;;29.00;19.03;;;;;;;;;;5022144;23;20108;-85
2022/03/23 13:07:30;;;;;;;26.95;20.40;;;;;;;;;;5024836;28;20038;-86
2022/03/23 13:10:06;;;;;;;29.52;19.83;;;;;;;;;;5021360;28;20104;-87
2022/03/23 13:12:31;;;;;;;26.45;19.88;;;;;;;;;;5015844;28;20025;-86
2022/03/23 13:14:57;;;;;;;25.45;18.40;;;;;;;;;;5012875;28;20501;-87
2022/03/23 13:17:22;;;;;;;21.48;17.58;;;;;;;;;;5017125;28;20049;-86
2022/03/23 13:19:55;;;;;;;25.30;19.80;;;;;;;;;;5021189;28;20029;-87
2022/03/23 13:22:32;;;;;;;24.42;19.15;;;;;;;;;;5020699;28;20045;-86
2022/03/23 13:25:02;;;;;;;22.20;17.95;;;;;;;;;;5024465;28;20014;-85
2022/03/23 13:27:27;;;;;;;24.63;17.92;;;;;;;;;;5024847;28;20018;-86
2022/03/23 13:29:58;;;;;;;23.58;17.30;;;;;;;;;;5014258;28;20049;-87
2022/03/23 13:32:30;;;;;;;22.50;16.48;;;;;;;;;;5025876;28;20037;-85
2022/03/23 13:34:56;;;;;;;23.67;18.98;;;;;;;;;;5013767;28;20033;-86
2022/03/23 13:37:22;;;;;;;22.08;15.82;;;;;;;;;;5025012;28;20138;-85
2022/03/23 13:39:48;;;;;;;21.40;15.77;;;;;;;;;;5015361;28;20068;-86
2022/03/23 13:45:04;;;;;;;21.10;16.90;;;;;;;;;;5029422;28;20113;-86
2022/03/23 13:47:31;;;;;;;21.17;17.05;;;;;;;;;;5025229;28;20018;-84
2022/03/23 13:49:59;;;;;;;20.40;15.57;;;;;;;;;;4997029;28;20033;-86
2022/03/23 13:52:25;;;;;;;20.83;15.85;;;;;;;;;;5021036;28;20028;-86
2022/03/23 13:54:53;;;;;;;20.67;15.93;;;;;;;;;;5015418;28;20228;-85
2022/03/23 13:57:19;;;;;;;19.73;15.43;;;;;;;;;;5022377;28;20481;-84
2022/03/23 13:59:51;;;;;;;23.15;16.55;;;;;;;;;;5024380;28;20053;-86
2022/03/23 14:02:16;;;;;;;22.20;15.32;;;;;;;;;;5026719;28;20021;-85
2022/03/23 14:04:41;;;;;;;20.90;15.55;;;;;;;;;;5009643;28;20095;-85
2022/03/23 14:07:08;;;;;;;17.77;14.03;;;;;;;;;;5021850;28;20259;-85
2022/03/23 14:09:37;;;;;;;20.27;15.05;;;;;;;;;;5026993;28;20020;-85
2022/03/23 14:12:07;;;;;;;20.30;14.52;;;;;;;;;;5022415;28;20045;-84
2022/03/23 14:14:36;;;;;;;20.75;15.07;;;;;;;;;;5020911;28;20010;-86
2022/03/23 14:17:07;;;;;;;20.15;14.80;;;;;;;;;;5014983;28;20022;-85
2022/03/23 14:19:53;;;;;;;21.30;14.98;;;;;;;;;;5020937;28;20473;-86
2022/03/23 14:22:22;;;;;;;20.15;15.40;;;;;;;;;;5024370;28;20065;-86
2022/03/23 14:24:48;;;;;;;25.52;15.35;;;;;;;;;;5015836;28;20425;-84
2022/03/23 14:27:14;;;;;;;23.90;17.10;;;;;;;;;;5034316;28;20034;-86
2022/03/23 14:29:41;;;;;;;21.25;14.40;;;;;;;;;;5034662;28;20017;-86
2022/03/23 14:32:08;;;;;;;27.75;17.13;;;;;;;;;;5013806;28;20030;-86
2022/03/23 14:34:37;;;;;;;18.57;14.23;;;;;;;;;;5014274;28;20022;-87
2022/03/23 14:37:13;;;;;;;17.73;14.55;;;;;;;;;;5019461;28;20048;-85
2022/03/23 14:39:46;;;;;;;17.02;14.13;;;;;;;;;;5022958;28;20021;-86
2022/03/23 14:42:11;;;;;;;16.77;13.25;;;;;;;;;;5020728;28;20022;-85
2022/03/23 14:44:39;;;;;;;22.70;14.77;;;;;;;;;;5030707;28;20029;-85
2022/03/23 14:47:10;;;;;;;17.87;14.77;;;;;;;;;;5014940;28;20091;-85
2022/03/23 14:49:41;;;;;;;22.77;15.20;;;;;;;;;;5006306;28;20383;-85
2022/03/23 14:52:07;;;;;;;20.75;14.75;;;;;;;;;;5021334;28;20101;-85
2022/03/23 14:54:33;;;;;;;17.27;13.57;;;;;;;;;;5030748;28;20033;-85
2022/03/23 14:56:58;;;;;;;30.85;14.00;;;;;;;;;;5018492;28;20014;-86
2022/03/23 14:59:26;;;;;;;18.83;12.67;;;;;;;;;;5032115;28;20022;-85
2022/03/23 15:01:57;;;;;;;18.50;12.80;;;;;;;;;;5017227;28;20325;-85
2022/03/23 15:04:22;;;;;;;26.60;18.38;;;;;;;;;;5020651;28;20026;-85
2022/03/23 15:14:59;;;;;;;24.90;18.02;;;;;;;;;;5043614;28;20025;-85
2022/03/23 15:17:25;;;;;;;22.17;16.48;;;;;;;;;;5030726;28;20726;-85
2022/03/23 15:19:51;;;;;;;22.35;16.25;;;;;;;;;;5036451;28;20076;-85
2022/03/23 15:22:16;;;;;;;18.17;14.10;;;;;;;;;;5031627;28;20025;-83
2022/03/23 15:24:41;;;;;;;19.60;13.93;;;;;;;;;;5043420;28;20056;-84
2022/03/23 15:27:06;;;;;;;19.07;13.73;;;;;;;;;;5043361;28;20025;-84
2022/03/23 15:29:31;;;;;;;25.48;16.52;;;;;;;;;;5034987;28;20254;-85
2022/03/23 15:31:57;;;;;;;18.67;15.20;;;;;;;;;;5037046;28;20018;-85
2022/03/23 15:34:22;;;;;;;22.75;14.18;;;;;;;;;;5040891;28;20064;-84
2022/03/23 15:36:49;;;;;;;16.27;12.30;;;;;;;;;;5022196;28;20481;-85
2022/03/23 15:39:14;;;;;;;16.05;12.45;;;;;;;;;;5026870;28;20250;-86
2022/03/23 15:41:39;;;;;;;18.85;13.75;;;;;;;;;;5039874;28;20017;-86
2022/03/23 15:44:08;;;;;;;25.75;13.32;;;;;;;;;;5029951;28;20022;-87
2022/03/23 15:46:34;;;;;;;19.67;14.05;;;;;;;;;;5035234;28;20050;-86
2022/03/23 15:49:00;;;;;;;16.00;13.43;;;;;;;;;;5013626;28;20019;-85
2022/03/23 15:51:26;;;;;;;17.35;13.02;;;;;;;;;;5031139;28;20017;-85
2022/03/23 15:53:52;;;;;;;23.90;15.00;;;;;;;;;;5039708;28;20018;-84
2022/03/23 15:56:17;;;;;;;19.83;14.30;;;;;;;;;;5028788;28;20018;-84
2022/03/23 15:58:43;;;;;;;17.50;13.88;;;;;;;;;;5025097;28;20053;-84
2022/03/23 16:01:08;;;;;;;15.85;12.88;;;;;;;;;;5005890;28;20028;-85
2022/03/23 16:03:34;;;;;;;18.60;13.30;;;;;;;;;;5034655;28;20125;-83
2022/03/23 16:05:59;;;;;;;17.40;12.95;;;;;;;;;;5033376;28;20033;-85
2022/03/23 16:08:24;;;;;;;20.65;13.45;;;;;;;;;;5031632;28;20014;-86
2022/03/23 16:10:50;;;;;;;19.53;12.83;;;;;;;;;;5030566;28;20461;-84
2022/03/23 16:13:15;;;;;;;16.98;12.70;;;;;;;;;;5036353;28;20251;-84
2022/03/23 16:15:41;;;;;;;21.63;13.10;;;;;;;;;;5026355;28;20022;-84
2022/03/23 16:18:06;;;;;;;19.83;14.32;;;;;;;;;;5028611;28;20014;-86
2022/03/23 16:20:32;;;;;;;25.25;14.27;;;;;;;;;;5036302;28;20017;-85
2022/03/23 16:22:58;;;;;;;19.80;13.30;;;;;;;;;;5024779;28;20021;-84
2022/03/23 16:25:23;;;;;;;16.98;12.10;;;;;;;;;;5033613;28;20026;-84
2022/03/23 16:27:52;;;;;;;18.75;12.30;;;;;;;;;;5026785;28;20200;-85
2022/03/23 16:30:19;;;;;;;19.13;13.07;;;;;;;;;;5027490;28;20211;-86